Terminal Aerodrome Forecast
Issued by NWS

Home | Current Version | Previous Version | Text Only | Print | Product List | Glossary On
Versions: 1 2 3 4 5 6 7 8 9 10 11 12
906
FTUS45 KVEF 252334
TAFHND
TAF
KHND 252334Z 2600/2624 16006KT P6SM SCT100 SCT200
     FM260200 21012KT P6SM SCT100 SCT200
     FM261600 VRB05KT P6SM FEW100
     FM262200 25012KT P6SM SCT100=

USA.gov is the U.S. government's official web portal to all federal, state and local government web resources and services.